Time;durP1;ratioP1;P1;durP2;ratioP2;P2;SDS_P1;SDS_P2;PMS_P1;PMS_P2;Temp;Humidity;BMP_temperature;BMP_pressure;BME280_temperature;BME280_humidity;BME280_pressure;Samples;Min_cycle;Max_cycle;Signal;HPM_P1;HPM_P2
2023/05/07 00:01:53;;;;;;;1.42;1.42;;;;;;;;;;4205474;28;20371;-58
2023/05/07 00:04:13;;;;;;;1.70;1.60;;;;;;;;;;4205498;28;20086;-58
2023/05/07 00:06:33;;;;;;;1.50;1.50;;;;;;;;;;4205284;28;20133;-58
2023/05/07 00:08:53;;;;;;;1.63;1.52;;;;;;;;;;4205095;28;20378;-58
2023/05/07 00:11:13;;;;;;;1.70;1.70;;;;;;;;;;4205242;28;20051;-58
2023/05/07 00:13:35;;;;;;;2.20;2.10;;;;;;;;;;4205212;28;20043;-58
2023/05/07 00:15:55;;;;;;;3.88;1.73;;;;;;;;;;4204996;28;20054;-57
2023/05/07 00:18:15;;;;;;;1.60;1.60;;;;;;;;;;4205444;28;20039;-58
2023/05/07 00:20:36;;;;;;;1.40;1.40;;;;;;;;;;4205298;28;20358;-58
2023/05/07 00:22:56;;;;;;;1.70;1.70;;;;;;;;;;4205279;28;20374;-58
2023/05/07 00:25:16;;;;;;;2.42;2.42;;;;;;;;;;4204653;28;20075;-58
2023/05/07 00:27:36;;;;;;;1.75;1.75;;;;;;;;;;4205194;28;20115;-57
2023/05/07 00:29:56;;;;;;;1.90;1.90;;;;;;;;;;4204441;28;20055;-57
2023/05/07 00:32:16;;;;;;;2.17;1.92;;;;;;;;;;4205201;28;20048;-58
2023/05/07 00:34:36;;;;;;;1.98;1.88;;;;;;;;;;4204062;28;20054;-58
2023/05/07 00:36:57;;;;;;;1.77;1.77;;;;;;;;;;4204192;28;20082;-57
2023/05/07 00:39:17;;;;;;;1.50;1.50;;;;;;;;;;4205136;28;20154;-57
2023/05/07 00:41:37;;;;;;;1.88;1.77;;;;;;;;;;4204719;28;20050;-58
2023/05/07 00:43:57;;;;;;;2.35;2.10;;;;;;;;;;4204682;28;20127;-57
2023/05/07 00:46:18;;;;;;;1.83;1.83;;;;;;;;;;4204548;28;20040;-57
2023/05/07 00:48:38;;;;;;;1.55;1.55;;;;;;;;;;4204293;28;20071;-57
2023/05/07 00:50:58;;;;;;;2.15;2.05;;;;;;;;;;4205091;28;20108;-57
2023/05/07 00:53:19;;;;;;;2.45;2.35;;;;;;;;;;4203962;28;20043;-57
2023/05/07 00:55:39;;;;;;;2.10;2.10;;;;;;;;;;4204990;28;20051;-57
2023/05/07 00:58:00;;;;;;;1.88;1.88;;;;;;;;;;4206701;28;20055;-58
2023/05/07 01:00:20;;;;;;;1.63;1.63;;;;;;;;;;4206657;28;20149;-60
2023/05/07 01:02:41;;;;;;;2.58;2.40;;;;;;;;;;4206288;28;20082;-61
2023/05/07 01:05:03;;;;;;;2.13;2.13;;;;;;;;;;4205805;28;20307;-60
2023/05/07 01:07:24;;;;;;;2.13;2.08;;;;;;;;;;4207593;28;20303;-60
2023/05/07 01:09:44;;;;;;;2.10;2.10;;;;;;;;;;4191374;28;20060;-61
2023/05/07 01:12:05;;;;;;;2.20;2.20;;;;;;;;;;4206210;28;20079;-61
2023/05/07 01:14:26;;;;;;;2.50;2.47;;;;;;;;;;4206889;28;20153;-61
2023/05/07 01:16:46;;;;;;;3.08;2.88;;;;;;;;;;4207251;28;20138;-61
2023/05/07 01:19:07;;;;;;;2.58;2.38;;;;;;;;;;4206111;28;20044;-61
2023/05/07 01:21:27;;;;;;;1.67;1.67;;;;;;;;;;4207323;28;20423;-61
2023/05/07 01:23:47;;;;;;;2.30;2.20;;;;;;;;;;4206322;28;20055;-61
2023/05/07 01:26:07;;;;;;;2.40;2.15;;;;;;;;;;4206516;28;20043;-61
2023/05/07 01:28:28;;;;;;;1.70;1.70;;;;;;;;;;4207475;28;20297;-61
2023/05/07 01:30:50;;;;;;;1.70;1.70;;;;;;;;;;4206839;28;20078;-61
2023/05/07 01:33:13;;;;;;;3.08;2.33;;;;;;;;;;4206091;28;20052;-61
2023/05/07 01:35:39;;;;;;;2.70;2.60;;;;;;;;;;4206800;28;20079;-61
2023/05/07 01:38:00;;;;;;;2.17;2.17;;;;;;;;;;4207418;28;20098;-61
2023/05/07 01:40:21;;;;;;;2.63;2.45;;;;;;;;;;4207303;28;20048;-61
2023/05/07 01:42:42;;;;;;;6.53;2.20;;;;;;;;;;4206834;28;20282;-61
2023/05/07 01:45:02;;;;;;;2.10;2.10;;;;;;;;;;4207202;28;20083;-61
2023/05/07 01:47:23;;;;;;;2.90;2.08;;;;;;;;;;4206886;28;20052;-61
2023/05/07 01:49:44;;;;;;;2.92;2.30;;;;;;;;;;4207077;28;20042;-61
2023/05/07 01:52:04;;;;;;;1.58;1.50;;;;;;;;;;4206733;28;20090;-61
2023/05/07 01:54:28;;;;;;;2.20;2.20;;;;;;;;;;4207097;28;20366;-61
2023/05/07 01:56:48;;;;;;;2.10;2.00;;;;;;;;;;4206179;28;20235;-61
2023/05/07 01:59:09;;;;;;;2.13;2.10;;;;;;;;;;4206986;28;20078;-61
2023/05/07 02:01:29;;;;;;;2.10;2.10;;;;;;;;;;4207004;28;20094;-61
2023/05/07 02:03:50;;;;;;;3.78;2.28;;;;;;;;;;4207014;28;20105;-61
2023/05/07 02:06:10;;;;;;;2.85;2.75;;;;;;;;;;4206972;28;20095;-61
2023/05/07 02:08:30;;;;;;;2.42;2.20;;;;;;;;;;4206932;28;20353;-61
2023/05/07 02:10:51;;;;;;;2.65;2.55;;;;;;;;;;4207051;28;20110;-61
2023/05/07 02:13:11;;;;;;;2.35;2.35;;;;;;;;;;4206711;28;20055;-61
2023/05/07 02:15:32;;;;;;;2.58;2.58;;;;;;;;;;4206705;28;20044;-61
2023/05/07 02:18:06;;;;;;;2.72;2.63;;;;;;;;;;4206448;28;20240;-61
2023/05/07 02:20:26;;;;;;;2.85;2.75;;;;;;;;;;4206689;28;20055;-61
2023/05/07 02:22:46;;;;;;;2.22;2.22;;;;;;;;;;4205255;28;20150;-61
2023/05/07 02:25:06;;;;;;;2.38;2.28;;;;;;;;;;4206640;28;20043;-61
2023/05/07 02:27:27;;;;;;;2.10;2.05;;;;;;;;;;4205882;28;20052;-61
2023/05/07 02:29:47;;;;;;;1.92;1.80;;;;;;;;;;4206608;28;20039;-61
2023/05/07 02:32:07;;;;;;;2.08;2.08;;;;;;;;;;4204674;28;20150;-61
2023/05/07 02:34:27;;;;;;;2.20;2.20;;;;;;;;;;4206214;28;20093;-61
2023/05/07 02:36:47;;;;;;;1.77;1.77;;;;;;;;;;4206630;28;20240;-61
2023/05/07 02:39:07;;;;;;;2.53;2.53;;;;;;;;;;4205149;28;20086;-61
2023/05/07 02:41:27;;;;;;;2.83;2.63;;;;;;;;;;4206562;28;20226;-61
2023/05/07 02:43:47;;;;;;;2.35;2.35;;;;;;;;;;4205564;28;20058;-61
2023/05/07 02:46:09;;;;;;;2.17;1.98;;;;;;;;;;4206255;28;20108;-61
2023/05/07 02:48:29;;;;;;;2.22;2.13;;;;;;;;;;4206259;28;20055;-61
2023/05/07 02:50:49;;;;;;;2.88;2.88;;;;;;;;;;4206173;28;20071;-61
2023/05/07 02:53:09;;;;;;;2.38;2.38;;;;;;;;;;4206054;28;20362;-61
2023/05/07 02:55:29;;;;;;;2.90;2.85;;;;;;;;;;4206059;28;20087;-61
2023/05/07 02:57:50;;;;;;;2.40;2.40;;;;;;;;;;4205428;28;20086;-61
2023/05/07 03:00:13;;;;;;;2.38;2.17;;;;;;;;;;4206355;28;20047;-61
2023/05/07 03:02:33;;;;;;;1.73;1.73;;;;;;;;;;4205789;28;20043;-61
2023/05/07 03:04:53;;;;;;;2.55;2.55;;;;;;;;;;4205251;28;20078;-61
2023/05/07 03:07:14;;;;;;;2.83;2.83;;;;;;;;;;4205137;28;20047;-61
2023/05/07 03:09:34;;;;;;;2.70;2.53;;;;;;;;;;4206147;28;20102;-61
2023/05/07 03:11:54;;;;;;;2.42;2.42;;;;;;;;;;4205207;28;20047;-61
2023/05/07 03:14:15;;;;;;;2.45;2.40;;;;;;;;;;4204375;28;20044;-61
2023/05/07 03:16:35;;;;;;;2.90;2.80;;;;;;;;;;4205960;28;20047;-61
2023/05/07 03:18:55;;;;;;;2.30;2.30;;;;;;;;;;4205753;28;20059;-61
2023/05/07 03:21:15;;;;;;;2.53;2.53;;;;;;;;;;4193623;28;20104;-61
2023/05/07 03:23:35;;;;;;;2.30;2.30;;;;;;;;;;4203573;28;20343;-61
2023/05/07 03:25:55;;;;;;;2.00;2.00;;;;;;;;;;4205622;28;20370;-61
2023/05/07 03:28:15;;;;;;;2.55;2.45;;;;;;;;;;4207699;28;20077;-61
2023/05/07 03:30:36;;;;;;;2.00;2.00;;;;;;;;;;4205878;28;20048;-61
2023/05/07 03:32:56;;;;;;;2.10;2.10;;;;;;;;;;4205698;28;20094;-61
2023/05/07 03:35:16;;;;;;;2.75;2.72;;;;;;;;;;4205797;28;20086;-61
2023/05/07 03:37:36;;;;;;;2.38;2.38;;;;;;;;;;4205481;28;20240;-61
2023/05/07 03:39:57;;;;;;;3.30;3.30;;;;;;;;;;4205304;28;20078;-61
2023/05/07 03:42:17;;;;;;;2.58;2.50;;;;;;;;;;4205621;28;20150;-61
2023/05/07 03:44:37;;;;;;;2.42;2.42;;;;;;;;;;4205758;28;20110;-61
2023/05/07 03:46:57;;;;;;;2.53;2.53;;;;;;;;;;4205664;28;20052;-61
2023/05/07 03:49:18;;;;;;;1.98;1.98;;;;;;;;;;4205361;28;20071;-61
2023/05/07 03:51:38;;;;;;;2.60;2.60;;;;;;;;;;4205435;28;20344;-61
2023/05/07 03:53:58;;;;;;;2.78;2.78;;;;;;;;;;4205233;28;20133;-61
2023/05/07 03:56:18;;;;;;;2.47;2.47;;;;;;;;;;4204845;28;20040;-61
2023/05/07 03:58:39;;;;;;;2.92;2.78;;;;;;;;;;4204716;28;20318;-61
2023/05/07 04:00:59;;;;;;;3.17;3.08;;;;;;;;;;4204255;28;20051;-61
2023/05/07 04:03:19;;;;;;;2.25;2.25;;;;;;;;;;4204558;28;20047;-61
2023/05/07 04:05:40;;;;;;;2.78;2.78;;;;;;;;;;4205596;28;20086;-61
2023/05/07 04:08:00;;;;;;;3.63;2.97;;;;;;;;;;4205425;28;20051;-61
2023/05/07 04:10:21;;;;;;;3.58;3.38;;;;;;;;;;4204426;28;20090;-61
2023/05/07 04:12:41;;;;;;;2.88;2.67;;;;;;;;;;4205495;28;20119;-61
2023/05/07 04:15:01;;;;;;;3.40;3.30;;;;;;;;;;4204279;28;20082;-61
2023/05/07 04:17:22;;;;;;;2.45;2.45;;;;;;;;;;4204826;28;20048;-61
2023/05/07 04:19:45;;;;;;;3.90;3.80;;;;;;;;;;4204146;28;20087;-61
2023/05/07 04:22:05;;;;;;;3.05;2.95;;;;;;;;;;4204284;28;20086;-61
2023/05/07 04:24:25;;;;;;;2.92;2.83;;;;;;;;;;4204451;28;20135;-61
2023/05/07 04:26:45;;;;;;;2.90;2.88;;;;;;;;;;4205251;28;20062;-61
2023/05/07 04:29:05;;;;;;;2.45;2.45;;;;;;;;;;4204161;28;20247;-61
2023/05/07 04:31:25;;;;;;;2.78;2.78;;;;;;;;;;4204628;28;20228;-61
2023/05/07 04:33:45;;;;;;;3.15;3.05;;;;;;;;;;4198215;28;20044;-61
2023/05/07 04:36:06;;;;;;;2.95;2.78;;;;;;;;;;4208293;28;20068;-61
2023/05/07 04:38:26;;;;;;;2.55;2.55;;;;;;;;;;4192750;28;20230;-61
2023/05/07 04:40:46;;;;;;;3.85;2.60;;;;;;;;;;4207994;28;20054;-61
2023/05/07 04:43:08;;;;;;;2.75;2.65;;;;;;;;;;4208006;28;20064;-61
2023/05/07 04:45:29;;;;;;;3.60;3.50;;;;;;;;;;4206847;28;20375;-61
2023/05/07 04:47:50;;;;;;;2.92;2.83;;;;;;;;;;4206878;28;20086;-61
2023/05/07 04:50:10;;;;;;;3.15;3.15;;;;;;;;;;4207849;28;20044;-61
2023/05/07 04:52:31;;;;;;;2.47;2.38;;;;;;;;;;4207771;28;20248;-61
2023/05/07 04:54:51;;;;;;;2.63;2.63;;;;;;;;;;4207593;28;20064;-61
2023/05/07 04:57:11;;;;;;;3.53;3.35;;;;;;;;;;4207441;28;20043;-61
2023/05/07 04:59:32;;;;;;;3.05;2.97;;;;;;;;;;4207576;28;20052;-61
2023/05/07 05:01:53;;;;;;;3.78;3.60;;;;;;;;;;4207153;28;20535;-61
2023/05/07 05:04:13;;;;;;;3.45;3.45;;;;;;;;;;4207825;28;20051;-61
2023/05/07 05:06:33;;;;;;;3.35;3.25;;;;;;;;;;4207754;28;20263;-61
2023/05/07 05:08:54;;;;;;;3.10;3.10;;;;;;;;;;4206900;28;20055;-61
2023/05/07 05:11:14;;;;;;;4.32;3.70;;;;;;;;;;4207595;28;20044;-61
2023/05/07 05:13:35;;;;;;;4.75;3.75;;;;;;;;;;4206171;28;20401;-61
2023/05/07 05:15:55;;;;;;;2.65;2.60;;;;;;;;;;4207439;28;20090;-61
2023/05/07 05:18:15;;;;;;;3.03;2.92;;;;;;;;;;4207462;28;20040;-61
2023/05/07 05:20:35;;;;;;;2.78;2.67;;;;;;;;;;4206412;28;20410;-61
2023/05/07 05:22:55;;;;;;;2.50;2.50;;;;;;;;;;4207555;28;20070;-61
2023/05/07 05:25:16;;;;;;;2.15;2.15;;;;;;;;;;4206758;28;20116;-61
2023/05/07 05:27:36;;;;;;;2.45;2.45;;;;;;;;;;4206895;28;20059;-61
2023/05/07 05:29:56;;;;;;;2.67;2.58;;;;;;;;;;4207496;28;20112;-61
2023/05/07 05:32:16;;;;;;;2.53;2.33;;;;;;;;;;4207180;28;20043;-61
2023/05/07 05:34:37;;;;;;;2.03;2.03;;;;;;;;;;4206014;28;20052;-61
2023/05/07 05:36:57;;;;;;;3.72;2.90;;;;;;;;;;4207080;28;20048;-61
2023/05/07 05:39:17;;;;;;;2.55;2.45;;;;;;;;;;4205749;28;20103;-61
2023/05/07 05:41:38;;;;;;;6.07;2.78;;;;;;;;;;4206475;28;20048;-61
2023/05/07 05:43:58;;;;;;;3.25;3.05;;;;;;;;;;4206781;28;20124;-61
2023/05/07 05:46:18;;;;;;;2.78;2.53;;;;;;;;;;4205142;28;20348;-61
2023/05/07 05:48:38;;;;;;;2.30;2.20;;;;;;;;;;4207033;28;20051;-61
2023/05/07 05:50:58;;;;;;;2.72;2.58;;;;;;;;;;4207384;28;20079;-61
2023/05/07 05:53:18;;;;;;;3.42;3.30;;;;;;;;;;4206781;28;20391;-60
2023/05/07 05:55:38;;;;;;;3.30;3.13;;;;;;;;;;4206931;28;20094;-61
2023/05/07 05:57:59;;;;;;;2.83;2.83;;;;;;;;;;4206180;28;20067;-61
2023/05/07 06:00:22;;;;;;;3.03;2.92;;;;;;;;;;4207209;28;20048;-61
2023/05/07 06:02:42;;;;;;;3.00;2.90;;;;;;;;;;4206042;28;20082;-61
2023/05/07 06:05:02;;;;;;;2.60;2.53;;;;;;;;;;4207060;28;20370;-61
2023/05/07 06:07:23;;;;;;;2.05;2.05;;;;;;;;;;4206311;28;20048;-60
2023/05/07 06:09:43;;;;;;;2.08;2.08;;;;;;;;;;4206785;28;20051;-61
2023/05/07 06:12:03;;;;;;;1.77;1.67;;;;;;;;;;4205582;28;20087;-61
2023/05/07 06:14:23;;;;;;;1.42;1.38;;;;;;;;;;4206508;28;20401;-61
2023/05/07 06:16:44;;;;;;;1.75;1.65;;;;;;;;;;4205170;28;20055;-61
2023/05/07 06:19:05;;;;;;;1.80;1.70;;;;;;;;;;4206250;28;20236;-60
2023/05/07 06:21:25;;;;;;;2.10;2.00;;;;;;;;;;4206721;28;20370;-61
2023/05/07 06:23:45;;;;;;;1.70;1.70;;;;;;;;;;4205892;28;20055;-60
2023/05/07 06:26:05;;;;;;;4.75;1.73;;;;;;;;;;4206715;28;20366;-61
2023/05/07 06:28:25;;;;;;;1.60;1.60;;;;;;;;;;4206463;28;20358;-61
2023/05/07 06:30:45;;;;;;;1.45;1.20;;;;;;;;;;4206431;28;20071;-60
2023/05/07 06:33:05;;;;;;;1.70;1.60;;;;;;;;;;4205129;28;20107;-61
2023/05/07 06:35:26;;;;;;;1.75;1.30;;;;;;;;;;4206517;28;20071;-60
2023/05/07 06:37:46;;;;;;;1.58;1.58;;;;;;;;;;4204335;28;20164;-60
2023/05/07 06:40:07;;;;;;;7.00;1.90;;;;;;;;;;4205529;28;20074;-61
2023/05/07 06:42:27;;;;;;;1.63;1.55;;;;;;;;;;4206392;28;20074;-61
2023/05/07 06:44:47;;;;;;;1.55;1.55;;;;;;;;;;4205909;28;20158;-60
2023/05/07 06:47:08;;;;;;;1.58;1.48;;;;;;;;;;4206334;28;20051;-60
2023/05/07 06:49:28;;;;;;;2.25;1.67;;;;;;;;;;4206163;28;20119;-61
2023/05/07 06:51:49;;;;;;;1.60;1.48;;;;;;;;;;4206111;28;20046;-60
2023/05/07 06:54:09;;;;;;;1.20;1.20;;;;;;;;;;4205790;28;20150;-60
2023/05/07 06:56:32;;;;;;;1.20;1.20;;;;;;;;;;4206006;28;20105;-60
2023/05/07 06:58:52;;;;;;;1.10;1.10;;;;;;;;;;4205842;28;20318;-61
2023/05/07 07:01:12;;;;;;;1.25;1.25;;;;;;;;;;4206280;28;20047;-60
2023/05/07 07:03:33;;;;;;;2.35;1.35;;;;;;;;;;4205260;28;20105;-60
2023/05/07 07:05:53;;;;;;;0.93;0.93;;;;;;;;;;4205587;28;20052;-60
2023/05/07 07:08:14;;;;;;;1.20;1.10;;;;;;;;;;4205074;28;20145;-60
2023/05/07 07:10:35;;;;;;;1.20;1.20;;;;;;;;;;4205880;28;20390;-60
2023/05/07 07:12:55;;;;;;;1.02;0.98;;;;;;;;;;4205916;28;20082;-60
2023/05/07 07:15:15;;;;;;;1.05;1.05;;;;;;;;;;4206095;28;20063;-60
2023/05/07 07:17:35;;;;;;;1.10;1.10;;;;;;;;;;4206045;28;20043;-60
2023/05/07 07:19:56;;;;;;;1.00;1.00;;;;;;;;;;4206002;28;20247;-60
2023/05/07 07:22:17;;;;;;;1.65;1.10;;;;;;;;;;4190972;28;20047;-59
2023/05/07 07:24:37;;;;;;;1.10;1.10;;;;;;;;;;4206071;28;20090;-60
2023/05/07 07:26:58;;;;;;;1.67;1.00;;;;;;;;;;4205905;28;20086;-59
2023/05/07 07:29:18;;;;;;;41.70;8.23;;;;;;;;;;4205841;28;20050;-59
2023/05/07 07:31:39;;;;;;;1.00;1.00;;;;;;;;;;4205578;28;20082;-60
2023/05/07 07:33:59;;;;;;;0.90;0.90;;;;;;;;;;4205721;28;20044;-59
2023/05/07 07:36:20;;;;;;;1.00;1.00;;;;;;;;;;4205498;28;20052;-59
2023/05/07 07:38:43;;;;;;;1.20;1.20;;;;;;;;;;4206097;28;20374;-59
2023/05/07 07:41:03;;;;;;;221.45;48.15;;;;;;;;;;4204577;28;20128;-59
2023/05/07 07:43:23;;;;;;;329.27;82.20;;;;;;;;;;4205594;28;20082;-59
2023/05/07 07:45:43;;;;;;;298.92;60.00;;;;;;;;;;4205721;28;20058;-59
2023/05/07 07:48:04;;;;;;;9.55;3.15;;;;;;;;;;4190297;28;20047;-59
2023/05/07 07:50:25;;;;;;;1.58;1.23;;;;;;;;;;4205428;28;20048;-59
2023/05/07 07:52:51;;;;;;;1.88;1.00;;;;;;;;;;4204978;28;20078;-59
2023/05/07 07:55:12;;;;;;;63.15;5.70;;;;;;;;;;4203619;28;20100;-59
2023/05/07 07:57:32;;;;;;;0.93;0.90;;;;;;;;;;4205287;28;20060;-59
2023/05/07 07:59:52;;;;;;;0.90;0.90;;;;;;;;;;4204945;28;20363;-59
2023/05/07 08:02:12;;;;;;;0.82;0.82;;;;;;;;;;4203457;28;20044;-59
2023/05/07 08:04:32;;;;;;;1.17;0.90;;;;;;;;;;4202041;28;20038;-59
2023/05/07 08:06:54;;;;;;;0.88;0.88;;;;;;;;;;4204813;28;20059;-58
2023/05/07 08:09:14;;;;;;;0.93;0.93;;;;;;;;;;4203841;28;20050;-59
2023/05/07 08:11:34;;;;;;;0.90;0.90;;;;;;;;;;4202467;28;20367;-58
2023/05/07 08:13:55;;;;;;;5.18;0.90;;;;;;;;;;4205475;28;20044;-59
2023/05/07 08:16:15;;;;;;;1.23;0.90;;;;;;;;;;4205306;28;20306;-59
2023/05/07 08:18:35;;;;;;;4.53;1.60;;;;;;;;;;4205104;28;20270;-59
2023/05/07 08:20:55;;;;;;;2.33;0.95;;;;;;;;;;4205172;28;20047;-59
2023/05/07 08:23:16;;;;;;;1.65;0.82;;;;;;;;;;4205129;28;20059;-59
2023/05/07 08:25:37;;;;;;;1.77;1.63;;;;;;;;;;4205063;28;20047;-59
2023/05/07 08:27:57;;;;;;;6.95;2.13;;;;;;;;;;4205057;28;20048;-58
2023/05/07 08:30:17;;;;;;;0.80;0.80;;;;;;;;;;4205172;28;20051;-59
2023/05/07 08:32:37;;;;;;;2.10;0.90;;;;;;;;;;4205074;28;20078;-59
2023/05/07 08:34:57;;;;;;;1.88;1.10;;;;;;;;;;4205191;28;20047;-58
2023/05/07 08:37:18;;;;;;;0.80;0.80;;;;;;;;;;4204914;28;20048;-59
2023/05/07 08:39:38;;;;;;;2.05;0.80;;;;;;;;;;4205192;28;20387;-58
2023/05/07 08:42:01;;;;;;;1.63;0.80;;;;;;;;;;4204509;28;20043;-59
2023/05/07 08:44:23;;;;;;;0.90;0.90;;;;;;;;;;4205004;28;20296;-59
2023/05/07 08:46:47;;;;;;;1.95;0.80;;;;;;;;;;4203396;28;20358;-59
2023/05/07 08:49:08;;;;;;;0.80;0.80;;;;;;;;;;4203824;28;20378;-59
2023/05/07 08:51:28;;;;;;;1.88;0.70;;;;;;;;;;4204437;28;20087;-59
2023/05/07 08:53:49;;;;;;;0.70;0.70;;;;;;;;;;4204001;28;20044;-59
2023/05/07 08:56:10;;;;;;;0.95;0.95;;;;;;;;;;4203258;28;20047;-59
2023/05/07 08:58:30;;;;;;;1.95;0.80;;;;;;;;;;4204857;28;20052;-59
2023/05/07 09:00:51;;;;;;;0.80;0.80;;;;;;;;;;4204262;28;20048;-59
2023/05/07 09:03:12;;;;;;;0.77;0.77;;;;;;;;;;4203192;28;20086;-59
2023/05/07 09:05:32;;;;;;;0.80;0.80;;;;;;;;;;4202847;28;20055;-59
2023/05/07 09:07:52;;;;;;;0.80;0.80;;;;;;;;;;4204531;28;20367;-59
2023/05/07 09:10:14;;;;;;;1.30;0.80;;;;;;;;;;4195495;28;20074;-59
2023/05/07 09:12:37;;;;;;;0.95;0.82;;;;;;;;;;4202992;28;20089;-59
2023/05/07 09:14:59;;;;;;;0.80;0.80;;;;;;;;;;4202542;28;20110;-59
2023/05/07 09:17:19;;;;;;;1.30;0.70;;;;;;;;;;4204458;28;20126;-59
2023/05/07 09:19:40;;;;;;;1.73;0.80;;;;;;;;;;4207030;28;20056;-59
2023/05/07 09:22:01;;;;;;;0.70;0.70;;;;;;;;;;4205665;28;20067;-58
2023/05/07 09:24:21;;;;;;;0.77;0.77;;;;;;;;;;4207444;28;20074;-59
2023/05/07 09:26:42;;;;;;;1.73;0.70;;;;;;;;;;4207510;28;20075;-59
2023/05/07 09:29:02;;;;;;;1.52;0.70;;;;;;;;;;4206723;28;20051;-60
2023/05/07 09:31:23;;;;;;;0.70;0.70;;;;;;;;;;4207107;28;20044;-59
2023/05/07 09:33:43;;;;;;;0.77;0.77;;;;;;;;;;4207338;28;20048;-59
2023/05/07 09:36:04;;;;;;;1.00;0.80;;;;;;;;;;4211523;28;20048;-59
2023/05/07 09:38:28;;;;;;;1.35;0.80;;;;;;;;;;4206433;28;20047;-59
2023/05/07 09:41:01;;;;;;;1.27;1.00;;;;;;;;;;4207299;28;20051;-59
2023/05/07 09:43:21;;;;;;;;;;;;;;;;;;4207361;28;20090;-59
2023/05/07 09:45:41;;;;;;;0.73;0.73;;;;;;;;;;4207485;28;19954;-59
2023/05/07 09:48:03;;;;;;;0.80;0.80;;;;;;;;;;4206667;28;20098;-59
2023/05/07 09:50:32;;;;;;;0.80;0.80;;;;;;;;;;4207233;28;20071;-58
2023/05/07 09:52:52;;;;;;;0.77;0.77;;;;;;;;;;4207024;28;20071;-59
2023/05/07 09:55:13;;;;;;;0.70;0.70;;;;;;;;;;4206444;28;20082;-59
2023/05/07 09:57:35;;;;;;;0.60;0.60;;;;;;;;;;4206282;28;20071;-59
2023/05/07 09:59:57;;;;;;;0.70;0.70;;;;;;;;;;4206489;28;20058;-58
2023/05/07 10:02:18;;;;;;;0.70;0.70;;;;;;;;;;4206178;28;20047;-59
2023/05/07 10:04:38;;;;;;;0.60;0.60;;;;;;;;;;4206075;28;20396;-58
2023/05/07 10:06:59;;;;;;;0.70;0.70;;;;;;;;;;4191790;28;20055;-59
2023/05/07 10:09:20;;;;;;;0.98;0.70;;;;;;;;;;4206382;28;20126;-58
2023/05/07 10:11:40;;;;;;;0.70;0.70;;;;;;;;;;4206824;28;20047;-58
2023/05/07 10:14:02;;;;;;;0.63;0.63;;;;;;;;;;4205878;28;20095;-58
2023/05/07 10:16:27;;;;;;;0.73;0.73;;;;;;;;;;4206045;28;20055;-59
2023/05/07 10:18:48;;;;;;;0.70;0.70;;;;;;;;;;4190394;28;20048;-59
2023/05/07 10:21:09;;;;;;;0.68;0.68;;;;;;;;;;4205953;28;20098;-59
2023/05/07 10:23:30;;;;;;;0.60;0.60;;;;;;;;;;4206269;28;20075;-59
2023/05/07 10:25:50;;;;;;;0.70;0.70;;;;;;;;;;4206341;28;20271;-59
2023/05/07 10:28:13;;;;;;;0.70;0.70;;;;;;;;;;4206469;28;20387;-59
2023/05/07 10:30:40;;;;;;;0.70;0.70;;;;;;;;;;4205820;28;20051;-58
2023/05/07 10:33:05;;;;;;;1.25;0.70;;;;;;;;;;4206664;28;20093;-59
2023/05/07 10:35:30;;;;;;;0.60;0.60;;;;;;;;;;4205813;28;20044;-59
2023/05/07 10:37:50;;;;;;;0.88;0.70;;;;;;;;;;4206588;28;20067;-59
2023/05/07 10:40:11;;;;;;;0.65;0.65;;;;;;;;;;4206483;28;20758;-58
2023/05/07 10:42:32;;;;;;;0.70;0.70;;;;;;;;;;4206210;28;20051;-58
2023/05/07 10:44:52;;;;;;;0.70;0.70;;;;;;;;;;4206113;28;20051;-58
2023/05/07 10:47:13;;;;;;;0.70;0.70;;;;;;;;;;4205997;28;20043;-59
2023/05/07 10:49:33;;;;;;;0.70;0.70;;;;;;;;;;4206315;28;20247;-58
2023/05/07 10:52:16;;;;;;;0.85;0.85;;;;;;;;;;4205979;28;20047;-58
2023/05/07 10:54:36;;;;;;;0.70;0.70;;;;;;;;;;4204526;28;20104;-58
2023/05/07 10:56:57;;;;;;;0.70;0.70;;;;;;;;;;4206065;28;20083;-58
2023/05/07 10:59:21;;;;;;;0.70;0.70;;;;;;;;;;4189538;28;20423;-58
2023/05/07 11:01:53;;;;;;;3.35;0.70;;;;;;;;;;4205231;28;20386;-58
2023/05/07 11:04:14;;;;;;;;;;;;;;;;;;4205477;28;20044;-58
2023/05/07 11:06:34;;;;;;;1.00;1.00;;;;;;;;;;4206202;28;19988;-58
2023/05/07 11:08:58;;;;;;;0.70;0.70;;;;;;;;;;4206246;28;20081;-58
2023/05/07 11:11:19;;;;;;;0.65;0.65;;;;;;;;;;4205479;28;20066;-58
2023/05/07 11:13:45;;;;;;;1.48;0.63;;;;;;;;;;4204439;28;20043;-58
2023/05/07 11:16:17;;;;;;;0.60;0.60;;;;;;;;;;4204188;28;20112;-58
2023/05/07 11:18:47;;;;;;;1.60;0.70;;;;;;;;;;4205684;28;20047;-58
2023/05/07 11:21:08;;;;;;;0.60;0.60;;;;;;;;;;4206070;28;20295;-58
2023/05/07 11:23:35;;;;;;;1.65;0.60;;;;;;;;;;4205919;28;20063;-58
2023/05/07 11:25:59;;;;;;;0.77;0.70;;;;;;;;;;4203931;28;20079;-58
2023/05/07 11:28:20;;;;;;;0.90;0.63;;;;;;;;;;4205776;28;20044;-58
2023/05/07 11:30:42;;;;;;;0.63;0.63;;;;;;;;;;4205743;28;20079;-59
2023/05/07 11:33:03;;;;;;;0.65;0.65;;;;;;;;;;4204705;28;20083;-58
2023/05/07 11:35:24;;;;;;;0.85;0.60;;;;;;;;;;4204719;28;20075;-58
2023/05/07 11:37:45;;;;;;;1.73;0.60;;;;;;;;;;4205737;28;20051;-58
2023/05/07 11:40:06;;;;;;;0.50;0.50;;;;;;;;;;4205610;28;20350;-58
2023/05/07 11:42:26;;;;;;;1.55;0.63;;;;;;;;;;4204292;28;20071;-57
2023/05/07 11:44:48;;;;;;;0.85;0.80;;;;;;;;;;4205708;28;20232;-58
2023/05/07 11:47:08;;;;;;;0.70;0.70;;;;;;;;;;4205432;28;20086;-58
2023/05/07 11:49:29;;;;;;;0.60;0.60;;;;;;;;;;4205168;28;20047;-58
2023/05/07 11:51:49;;;;;;;0.60;0.60;;;;;;;;;;4205379;28;20056;-58
2023/05/07 11:54:11;;;;;;;0.68;0.60;;;;;;;;;;4205655;28;20147;-57
2023/05/07 11:56:34;;;;;;;0.60;0.60;;;;;;;;;;4205351;28;20072;-58
2023/05/07 11:58:54;;;;;;;0.70;0.70;;;;;;;;;;4205178;28;20056;-58
2023/05/07 12:01:16;;;;;;;1.48;0.60;;;;;;;;;;4204627;28;20299;-58
2023/05/07 12:03:41;;;;;;;4.07;1.48;;;;;;;;;;4205419;28;20082;-57
2023/05/07 12:06:01;;;;;;;0.50;0.50;;;;;;;;;;4205541;28;20051;-57
2023/05/07 12:08:22;;;;;;;0.60;0.60;;;;;;;;;;4205440;28;20239;-58
2023/05/07 12:10:43;;;;;;;0.63;0.63;;;;;;;;;;4205374;28;20047;-58
2023/05/07 12:13:03;;;;;;;0.88;0.57;;;;;;;;;;4205367;28;20112;-58
2023/05/07 12:15:23;;;;;;;0.57;0.57;;;;;;;;;;4205341;28;20111;-58
2023/05/07 12:17:44;;;;;;;0.50;0.50;;;;;;;;;;4204878;28;20044;-58
2023/05/07 12:20:05;;;;;;;0.60;0.60;;;;;;;;;;4205293;28;20108;-58
2023/05/07 12:22:25;;;;;;;0.60;0.60;;;;;;;;;;4205083;28;20047;-57
2023/05/07 12:24:57;;;;;;;1.55;0.68;;;;;;;;;;4205415;28;20051;-58
2023/05/07 12:27:18;;;;;;;0.60;0.60;;;;;;;;;;4204713;28;20363;-58
2023/05/07 12:29:43;;;;;;;0.60;0.60;;;;;;;;;;4205343;28;20107;-58
2023/05/07 12:32:03;;;;;;;1.08;0.60;;;;;;;;;;4205329;28;20072;-58
2023/05/07 12:34:26;;;;;;;0.98;0.60;;;;;;;;;;4203462;28;20094;-58
2023/05/07 12:36:48;;;;;;;1.95;0.70;;;;;;;;;;4205174;28;20082;-58
2023/05/07 12:39:09;;;;;;;0.50;0.50;;;;;;;;;;4205264;28;20047;-60
2023/05/07 12:41:30;;;;;;;0.50;0.50;;;;;;;;;;4204436;28;20047;-61
2023/05/07 12:43:50;;;;;;;0.93;0.40;;;;;;;;;;4205060;28;20127;-59
2023/05/07 12:46:10;;;;;;;1.35;0.50;;;;;;;;;;4203587;28;20090;-60
2023/05/07 12:48:31;;;;;;;0.50;0.50;;;;;;;;;;4204862;28;20112;-60
2023/05/07 12:50:51;;;;;;;1.40;0.50;;;;;;;;;;4204851;28;20099;-61
2023/05/07 12:53:12;;;;;;;0.98;0.50;;;;;;;;;;4205832;28;20147;-61
2023/05/07 12:55:33;;;;;;;0.60;0.50;;;;;;;;;;4207663;28;20051;-60
2023/05/07 12:57:57;;;;;;;1.38;0.50;;;;;;;;;;4207909;28;20047;-60
2023/05/07 13:00:17;;;;;;;0.50;0.50;;;;;;;;;;4207346;28;20043;-60
2023/05/07 13:02:38;;;;;;;1.50;0.50;;;;;;;;;;4207884;28;20205;-60
2023/05/07 13:04:59;;;;;;;1.35;0.50;;;;;;;;;;4206492;28;20077;-60
2023/05/07 13:07:19;;;;;;;0.50;0.50;;;;;;;;;;4207495;28;20370;-60
2023/05/07 13:09:40;;;;;;;0.73;0.50;;;;;;;;;;4206600;28;20242;-60
2023/05/07 13:12:01;;;;;;;0.50;0.50;;;;;;;;;;4207508;28;20090;-60
2023/05/07 13:14:21;;;;;;;0.50;0.50;;;;;;;;;;4207217;28;20058;-60
2023/05/07 13:16:41;;;;;;;2.38;0.50;;;;;;;;;;4207099;28;20051;-60
2023/05/07 13:19:02;;;;;;;0.82;0.50;;;;;;;;;;4205890;28;20048;-60
2023/05/07 13:21:22;;;;;;;0.50;0.50;;;;;;;;;;4207172;28;20051;-60
2023/05/07 13:23:42;;;;;;;0.50;0.50;;;;;;;;;;4206996;28;20055;-60
2023/05/07 13:26:02;;;;;;;2.10;0.50;;;;;;;;;;4206705;28;20086;-60
2023/05/07 13:28:31;;;;;;;0.50;0.50;;;;;;;;;;4206528;28;20059;-61
2023/05/07 13:30:54;;;;;;;0.82;0.80;;;;;;;;;;4206370;28;20078;-60
2023/05/07 13:33:15;;;;;;;2.05;0.50;;;;;;;;;;4207010;28;20043;-60
2023/05/07 13:35:35;;;;;;;0.93;0.50;;;;;;;;;;4207101;28;20370;-60
2023/05/07 13:37:56;;;;;;;0.45;0.45;;;;;;;;;;4206598;28;20071;-61
2023/05/07 13:40:16;;;;;;;0.50;0.50;;;;;;;;;;4206986;28;20111;-60
2023/05/07 13:42:36;;;;;;;0.50;0.50;;;;;;;;;;4206331;28;20047;-60
2023/05/07 13:44:57;;;;;;;0.55;0.50;;;;;;;;;;4206941;28;20063;-60
2023/05/07 13:47:17;;;;;;;0.50;0.50;;;;;;;;;;4206338;28;20043;-60
2023/05/07 13:49:37;;;;;;;0.50;0.50;;;;;;;;;;4206155;28;20051;-60
2023/05/07 13:51:57;;;;;;;0.60;0.60;;;;;;;;;;4206703;28;20059;-60
2023/05/07 13:54:17;;;;;;;0.40;0.40;;;;;;;;;;4206560;28;20051;-60
2023/05/07 13:56:38;;;;;;;0.50;0.50;;;;;;;;;;4206818;28;20052;-60
2023/05/07 13:58:58;;;;;;;0.85;0.50;;;;;;;;;;4205884;28;20078;-60
2023/05/07 14:01:20;;;;;;;0.50;0.50;;;;;;;;;;4206884;28;20079;-60
2023/05/07 14:03:41;;;;;;;0.50;0.50;;;;;;;;;;4205976;28;20243;-60
2023/05/07 14:06:01;;;;;;;0.95;0.85;;;;;;;;;;4205839;28;20427;-61